CSCL Genoa — V2OH2 — position and weather

sailwx.info

Track history (hours):
 
Tides and Currents Weather Stations Pressure Air Temp Water Temp Dewpoint Dewpoint Depression Visibility Wind Speed Wind Dir Waves Ship Positions

CSCL Genoa

Last reported at 2016-May-10 19:25 UTC. Time now 2016-May-24 23:32 UTC.
Position N 01°53' E 102°25'.
Warning: this ship's position is 14 days out of date.

Length 208 m; beam 32 m; draft 11.5 m.

Type: Ship. MMSI: 304528000.

Date/timePositionNaut miles runAvg speedWind from/ knotsBaromVisibWave heightAir tempDewpointWater temp
2016-May-10 19:25N 01°53' E 102°25'1314.6
2016-May-10 18:33N 01°48' E 102°36'1413.7
2016-May-10 17:33N 01°41' E 102°48'47 9.2
2016-May-10 12:27N 01°14' E 103°27'10 0.6
2016-May-09 19:18N 01°22' E 103°33'4 1.0
2016-May-09 15:17N 01°18' E 103°33'5 0.9
2016-May-09 09:21N 01°15' E 103°29'3 0.8
2016-May-09 05:24N 01°13' E 103°31'6 7.3
2016-May-09 04:33N 01°12' E 103°37'8 7.8
2016-May-09 03:34N 01°09' E 103°44'7 6.7
2016-May-09 02:33N 01°13' E 103°49'0 0.1
2016-May-09 01:30N 01°13' E 103°49'0 0.1
2016-May-09 00:33N 01°13' E 103°49'0 0.0
2016-May-08 23:30N 01°13' E 103°49'0 0.1
2016-May-08 22:24N 01°13' E 103°49'0 0.0
2016-May-08 21:30N 01°13' E 103°49'0 0.1
2016-May-08 20:33N 01°13' E 103°49'0 0.0
2016-May-08 19:33N 01°13' E 103°49'0 0.0
2016-May-08 18:30N 01°13' E 103°49'0 0.1
2016-May-08 17:33N 01°13' E 103°49'0 0.0
2016-May-08 16:33N 01°13' E 103°49'2 2.3
2016-May-08 15:33N 01°14' E 103°47'2 1.7
2016-May-08 14:32N 01°16' E 103°47'0 0.0
2016-May-08 13:29N 01°16' E 103°47'0 0.0
2016-May-08 12:32N 01°16' E 103°47'0 0.0
2016-May-08 11:29N 01°16' E 103°47'0 0.0
2016-May-08 10:32N 01°16' E 103°47'0 0.0
2016-May-08 09:32N 01°16' E 103°47'0 0.0
2016-May-08 08:30N 01°16' E 103°47'0 0.0
2016-May-08 07:33N 01°16' E 103°47'0 0.3
2016-May-08 06:34N 01°16' E 103°47'7 6.6
2016-May-08 05:34N 01°13' E 103°53'8 7.8
2016-May-08 04:33N 01°15' E 104°00'  
Track history (hours):
 
Tides and Currents Weather Stations Pressure Air Temp Water Temp Dewpoint Dewpoint Depression Visibility Wind Speed Wind Dir Waves Ship Positions

CSCL Genoa

Last reported at 2016-May-10 19:25 UTC. Time now 2016-May-24 23:32 UTC.
Position N 01°53' E 102°25'.
Warning: this ship's position is 14 days out of date.

Length 208 m; beam 32 m; draft 11.5 m.

Type: Ship. MMSI: 304528000.

Date/timePositionNaut miles runAvg speedWind from/ knotsBaromVisibWave heightAir tempDewpointWater temp
2016-May-10 19:25N 01°53' E 102°25'1314.6
2016-May-10 18:33N 01°48' E 102°36'1413.7
2016-May-10 17:33N 01°41' E 102°48'47 9.2
2016-May-10 12:27N 01°14' E 103°27'10 0.6
2016-May-09 19:18N 01°22' E 103°33'4 1.0
2016-May-09 15:17N 01°18' E 103°33'5 0.9
2016-May-09 09:21N 01°15' E 103°29'3 0.8
2016-May-09 05:24N 01°13' E 103°31'6 7.3
2016-May-09 04:33N 01°12' E 103°37'8 7.8
2016-May-09 03:34N 01°09' E 103°44'7 6.7
2016-May-09 02:33N 01°13' E 103°49'0 0.1
2016-May-09 01:30N 01°13' E 103°49'0 0.1
2016-May-09 00:33N 01°13' E 103°49'0 0.0
2016-May-08 23:30N 01°13' E 103°49'0 0.1
2016-May-08 22:24N 01°13' E 103°49'0 0.0
2016-May-08 21:30N 01°13' E 103°49'0 0.1
2016-May-08 20:33N 01°13' E 103°49'0 0.0
2016-May-08 19:33N 01°13' E 103°49'0 0.0
2016-May-08 18:30N 01°13' E 103°49'0 0.1
2016-May-08 17:33N 01°13' E 103°49'0 0.0
2016-May-08 16:33N 01°13' E 103°49'2 2.3
2016-May-08 15:33N 01°14' E 103°47'2 1.7
2016-May-08 14:32N 01°16' E 103°47'0 0.0
2016-May-08 13:29N 01°16' E 103°47'0 0.0
2016-May-08 12:32N 01°16' E 103°47'0 0.0
2016-May-08 11:29N 01°16' E 103°47'0 0.0
2016-May-08 10:32N 01°16' E 103°47'0 0.0
2016-May-08 09:32N 01°16' E 103°47'0 0.0
2016-May-08 08:30N 01°16' E 103°47'0 0.0
2016-May-08 07:33N 01°16' E 103°47'0 0.3
2016-May-08 06:34N 01°16' E 103°47'7 6.6
2016-May-08 05:34N 01°13' E 103°53'8 7.8
2016-May-08 04:33N 01°15' E 104°00'  

Dump ship's entire track history